createdAt,value
2022-11-17T00:03:52.051Z,79.19
2022-11-17T00:08:54.643Z,79.24
2022-11-17T00:14:15.767Z,79.07
2022-11-17T00:19:37.003Z,79.40
2022-11-17T00:24:39.573Z,79.69
2022-11-17T00:29:42.315Z,80.11
2022-11-17T00:34:44.962Z,79.59
2022-11-17T00:39:47.467Z,79.85
2022-11-17T00:44:50.057Z,79.34
2022-11-17T00:49:52.594Z,79.48
2022-11-17T00:54:55.112Z,79.55
2022-11-17T00:59:57.633Z,78.97
2022-11-17T01:05:00.216Z,78.88
2022-11-17T01:10:02.749Z,79.49
2022-11-17T01:15:06.131Z,79.30
2022-11-17T01:20:09.348Z,79.66
2022-11-17T01:25:11.989Z,79.10
2022-11-17T01:30:18.409Z,79.23
2022-11-17T01:35:20.915Z,79.09
2022-11-17T01:40:23.467Z,78.55
2022-11-17T01:45:26.968Z,79.37
2022-11-17T01:50:42.439Z,80.04
2022-11-17T01:55:52.330Z,80.19
2022-11-17T02:00:55.799Z,80.50
2022-11-17T02:06:06.108Z,80.43
2022-11-17T02:11:18.227Z,79.99
2022-11-17T02:16:20.951Z,80.68
2022-11-17T02:21:35.264Z,80.19
2022-11-17T02:26:59.008Z,80.12
2022-11-17T02:32:04.901Z,80.21
2022-11-17T02:37:16.529Z,80.34
2022-11-17T02:42:48.464Z,80.39
2022-11-17T02:47:54.963Z,80.26
2022-11-17T02:52:57.687Z,81.09
2022-11-17T02:58:00.297Z,80.79
2022-11-17T03:03:35.500Z,80.86
2022-11-17T03:09:02.936Z,80.59
2022-11-17T03:14:20.152Z,80.89
2022-11-17T03:19:32.600Z,80.56
2022-11-17T03:24:49.869Z,80.74
2022-11-17T03:29:57.167Z,80.62
2022-11-17T03:35:08.227Z,80.90
2022-11-17T03:40:15.010Z,81.18
2022-11-17T03:45:22.730Z,80.68
2022-11-17T03:50:32.202Z,80.83
2022-11-17T03:56:16.201Z,81.08
2022-11-17T04:01:21.099Z,81.31
2022-11-17T04:06:23.771Z,80.84
2022-11-17T04:11:45.121Z,81.21
2022-11-17T04:16:47.718Z,80.42
2022-11-17T04:21:50.338Z,80.80
2022-11-17T04:27:11.256Z,81.26
2022-11-17T04:32:13.868Z,81.06
2022-11-17T04:37:19.771Z,80.59
2022-11-17T04:42:22.305Z,80.47
2022-11-17T04:47:24.883Z,80.48
2022-11-17T04:52:29.940Z,80.46
2022-11-17T04:57:32.702Z,80.37
2022-11-17T05:02:35.354Z,80.84
2022-11-17T05:07:38.060Z,80.83
2022-11-17T05:13:01.248Z,81.11
2022-11-17T05:18:03.877Z,81.43
2022-11-17T05:23:25.061Z,81.01
2022-11-17T05:28:27.600Z,80.84
2022-11-17T05:33:36.441Z,81.22
2022-11-17T05:38:40.655Z,80.67
2022-11-17T05:43:43.961Z,80.15
2022-11-17T05:48:48.854Z,80.07
2022-11-17T05:53:51.762Z,79.66
2022-11-17T05:59:03.872Z,80.11
2022-11-17T06:04:08.752Z,79.83
2022-11-17T06:09:11.969Z,79.48
2022-11-17T06:14:14.573Z,80.14
2022-11-17T06:24:25.563Z,79.45
2022-11-17T06:29:29.006Z,79.64
2022-11-17T06:34:33.007Z,79.18
2022-11-17T06:39:35.660Z,78.40
2022-11-17T06:44:38.195Z,78.52
2022-11-17T06:49:40.844Z,78.00
2022-11-17T06:54:43.495Z,77.52
2022-11-17T06:59:46.183Z,77.33
2022-11-17T07:04:48.766Z,77.45
2022-11-17T07:09:51.384Z,76.70
2022-11-17T07:14:53.933Z,76.81
2022-11-17T07:19:56.909Z,76.25
2022-11-17T07:24:59.513Z,75.85
2022-11-17T07:30:03.082Z,75.13
2022-11-17T07:35:06.927Z,75.00
2022-11-17T07:40:10.257Z,74.13
2022-11-17T07:45:13.043Z,73.88
2022-11-17T07:50:16.166Z,74.67
2022-11-17T07:55:19.298Z,73.79
2022-11-17T08:00:22.312Z,73.23
2022-11-17T08:05:26.689Z,73.49
2022-11-17T08:10:31.502Z,74.25
2022-11-17T08:15:34.161Z,74.53
2022-11-17T08:20:37.036Z,74.06
2022-11-17T08:25:39.754Z,73.84
2022-11-17T08:30:44.411Z,73.87
2022-11-17T08:35:47.167Z,73.39
2022-11-17T08:40:49.813Z,73.38
2022-11-17T08:45:53.147Z,72.57
2022-11-17T08:50:56.386Z,71.54
2022-11-17T08:55:59.774Z,71.79
2022-11-17T09:01:05.273Z,71.36
2022-11-17T09:06:08.934Z,71.73
2022-11-17T09:11:12.535Z,71.83
2022-11-17T09:16:16.063Z,71.51
2022-11-17T09:21:18.685Z,70.58
2022-11-17T09:26:21.448Z,71.33
2022-11-17T09:31:24.180Z,71.16
2022-11-17T09:36:27.060Z,71.13
2022-11-17T09:41:44.583Z,70.85
2022-11-17T09:46:56.653Z,70.80
2022-11-17T09:52:11.448Z,70.06
2022-11-17T09:57:40.982Z,70.61
2022-11-17T10:02:43.726Z,70.01
2022-11-17T10:07:51.750Z,69.65
2022-11-17T10:12:58.290Z,69.18
2022-11-17T10:18:00.948Z,69.36
2022-11-17T10:23:04.711Z,68.83
2022-11-17T10:28:09.821Z,68.69
2022-11-17T10:33:13.392Z,69.10
2022-11-17T10:38:22.967Z,68.86
2022-11-17T10:43:37.077Z,68.56
2022-11-17T10:48:55.241Z,68.94
2022-11-17T10:54:14.870Z,69.57
2022-11-17T10:59:29.934Z,69.18
2022-11-17T11:04:39.634Z,70.00
2022-11-17T11:09:49.561Z,69.39
2022-11-17T11:14:56.277Z,69.81
2022-11-17T11:19:59.392Z,69.46
2022-11-17T11:25:21.254Z,70.00
2022-11-17T11:30:24.012Z,70.65
2022-11-17T11:35:53.334Z,70.12
2022-11-17T11:41:42.588Z,70.78
2022-11-17T11:47:09.386Z,71.05
2022-11-17T11:52:22.974Z,73.12
2022-11-17T11:57:32.875Z,77.90
2022-11-17T12:02:50.333Z,79.32
2022-11-17T12:07:56.687Z,77.77
2022-11-17T12:12:59.992Z,77.68
2022-11-17T12:18:06.450Z,76.91
2022-11-17T12:23:27.714Z,76.72
2022-11-17T12:28:40.234Z,79.67
2022-11-17T12:33:52.077Z,81.25
2022-11-17T12:38:55.285Z,83.42
2022-11-17T12:44:36.345Z,83.59
2022-11-17T12:49:58.022Z,83.38
2022-11-17T12:55:18.043Z,83.71
2022-11-17T13:00:23.547Z,83.07
2022-11-17T13:05:30.348Z,84.37
2022-11-17T13:10:33.103Z,84.27
2022-11-17T13:15:35.669Z,79.39
2022-11-17T13:20:39.652Z,78.42
2022-11-17T13:25:42.603Z,78.36
2022-11-17T13:30:47.053Z,78.89
2022-11-17T13:35:51.456Z,78.26
2022-11-17T13:40:54.190Z,78.18
2022-11-17T13:45:57.580Z,78.43
2022-11-17T13:51:38.908Z,76.22
2022-11-17T13:56:47.463Z,76.44
2022-11-17T14:02:10.155Z,75.19
2022-11-17T14:07:15.083Z,74.01
2022-11-17T14:12:17.785Z,74.12
2022-11-17T14:17:22.238Z,73.53
2022-11-17T14:22:31.348Z,73.69
2022-11-17T14:27:37.099Z,73.46
2022-11-17T14:32:40.257Z,76.59
2022-11-17T14:37:43.581Z,77.34
2022-11-17T14:42:46.295Z,76.60
2022-11-17T14:47:48.934Z,78.29
2022-11-17T14:52:51.454Z,77.71
2022-11-17T14:57:54.424Z,76.65
2022-11-17T15:02:57.205Z,76.74
2022-11-17T15:07:59.895Z,76.17
2022-11-17T15:13:02.453Z,76.42
2022-11-17T15:18:05.379Z,75.57
2022-11-17T15:23:08.452Z,74.78
2022-11-17T15:28:15.016Z,75.75
2022-11-17T15:33:19.547Z,75.25
2022-11-17T15:38:22.160Z,75.33
2022-11-17T15:43:32.581Z,75.80
2022-11-17T15:48:40.117Z,74.99
2022-11-17T15:53:43.783Z,75.34
2022-11-17T15:58:47.756Z,74.86
2022-11-17T16:03:51.104Z,74.83
2022-11-17T16:08:53.981Z,75.15
2022-11-17T16:13:57.621Z,75.11
2022-11-17T16:19:00.237Z,74.49
2022-11-17T16:24:03.537Z,74.48
2022-11-17T16:29:07.512Z,74.30
2022-11-17T16:34:13.425Z,73.75
2022-11-17T16:39:17.478Z,76.54
2022-11-17T16:44:20.726Z,77.61
2022-11-17T16:49:23.708Z,76.22
2022-11-17T16:54:26.298Z,76.46
2022-11-17T16:59:28.913Z,76.40
2022-11-17T17:04:32.038Z,75.80
2022-11-17T17:09:34.751Z,76.94
2022-11-17T17:14:37.319Z,77.46
2022-11-17T17:19:39.935Z,79.61
2022-11-17T17:24:42.698Z,80.38
2022-11-17T17:29:45.373Z,81.29
2022-11-17T17:34:47.922Z,83.12
2022-11-17T17:39:50.512Z,88.63
2022-11-17T17:44:53.106Z,87.22
2022-11-17T17:49:55.856Z,87.02
2022-11-17T17:54:58.512Z,87.46
2022-11-17T18:00:01.083Z,88.52
2022-11-17T18:05:07.013Z,88.49
2022-11-17T18:10:09.712Z,88.98
2022-11-17T18:15:12.247Z,88.69
2022-11-17T18:20:15.131Z,88.99
2022-11-17T18:25:18.097Z,89.71
2022-11-17T18:30:20.722Z,89.27
2022-11-17T18:35:23.364Z,88.23
2022-11-17T18:40:26.348Z,86.56
2022-11-17T18:45:29.553Z,86.90
2022-11-17T18:50:32.129Z,85.89
2022-11-17T18:55:34.689Z,85.06
2022-11-17T19:00:37.406Z,84.48
2022-11-17T19:05:39.973Z,84.75
2022-11-17T19:10:52.813Z,85.58
2022-11-17T19:15:55.545Z,85.93
2022-11-17T19:21:08.522Z,85.04
2022-11-17T19:26:20.024Z,84.92
2022-11-17T19:31:23.368Z,85.15
2022-11-17T19:36:31.773Z,84.58
2022-11-17T19:41:37.020Z,84.92
2022-11-17T19:46:39.978Z,85.44
2022-11-17T19:51:42.638Z,85.83
2022-11-17T19:56:45.676Z,85.62
2022-11-17T20:01:48.282Z,84.92
2022-11-17T20:06:51.064Z,85.43
2022-11-17T20:11:53.742Z,85.17
2022-11-17T20:16:56.408Z,86.66
2022-11-17T20:21:59.066Z,87.09
2022-11-17T20:27:01.636Z,87.61
2022-11-17T20:32:04.422Z,87.19
2022-11-17T20:37:06.993Z,87.57
2022-11-17T20:42:10.434Z,86.82
2022-11-17T20:47:13.110Z,87.42
2022-11-17T20:52:15.937Z,89.58
2022-11-17T20:57:18.905Z,90.37
2022-11-17T21:02:21.417Z,91.32
2022-11-17T21:07:24.014Z,92.00
2022-11-17T21:12:27.294Z,91.28
2022-11-17T21:17:48.374Z,91.14
2022-11-17T21:22:51.052Z,92.12
2022-11-17T21:27:53.595Z,91.81
2022-11-17T21:32:56.178Z,92.00
2022-11-17T21:37:59.289Z,91.32
2022-11-17T21:43:08.049Z,91.15
2022-11-17T21:48:10.794Z,91.13
2022-11-17T21:53:13.425Z,89.44
2022-11-17T21:58:15.920Z,88.96
2022-11-17T22:03:18.528Z,89.15
2022-11-17T22:08:21.064Z,89.00
2022-11-17T22:13:23.630Z,88.93
2022-11-17T22:18:26.195Z,88.19
2022-11-17T22:23:28.862Z,88.21
2022-11-17T22:28:31.535Z,87.47
2022-11-17T22:33:34.180Z,89.35
2022-11-17T22:38:36.867Z,89.81
2022-11-17T22:43:39.615Z,89.32
2022-11-17T22:48:42.202Z,89.39
2022-11-17T22:53:44.976Z,89.97
2022-11-17T22:58:50.059Z,90.32
2022-11-17T23:03:52.814Z,91.48
2022-11-17T23:08:57.520Z,91.60
2022-11-17T23:14:00.155Z,92.46
2022-11-17T23:19:03.158Z,93.51
2022-11-17T23:24:06.091Z,92.77
2022-11-17T23:29:09.482Z,94.39
2022-11-17T23:34:12.213Z,94.11
2022-11-17T23:39:15.355Z,94.49
2022-11-17T23:44:18.283Z,94.14
2022-11-17T23:49:20.843Z,94.24
2022-11-17T23:54:23.457Z,93.43
2022-11-17T23:59:26.006Z,94.85
